createdAt,value
2017-10-11T00:01:42.749Z,100.00
2017-10-11T00:04:11.126Z,100.00
2017-10-11T00:06:39.494Z,100.00
2017-10-11T00:09:07.870Z,100.00
2017-10-11T00:11:36.251Z,100.00
2017-10-11T00:14:04.631Z,100.00
2017-10-11T00:16:32.982Z,100.00
2017-10-11T00:19:01.770Z,100.00
2017-10-11T00:21:30.162Z,100.00
2017-10-11T00:23:58.523Z,100.00
2017-10-11T00:26:26.908Z,100.00
2017-10-11T00:28:55.265Z,100.00
2017-10-11T00:31:23.646Z,100.00
2017-10-11T00:33:52.007Z,100.00
2017-10-11T00:36:20.382Z,100.00
2017-10-11T00:38:48.763Z,100.00
2017-10-11T00:41:17.118Z,100.00
2017-10-11T00:43:45.506Z,100.00
2017-10-11T00:46:13.871Z,100.00
2017-10-11T00:48:42.255Z,100.00
2017-10-11T00:51:10.647Z,100.00
2017-10-11T00:53:39.035Z,100.00
2017-10-11T00:56:07.411Z,100.00
2017-10-11T00:58:35.815Z,100.00
2017-10-11T01:01:04.166Z,100.00
2017-10-11T01:03:32.552Z,100.00
2017-10-11T01:06:00.938Z,100.00
2017-10-11T01:08:29.289Z,100.00
2017-10-11T01:10:57.672Z,100.00
2017-10-11T01:13:26.027Z,100.00
2017-10-11T01:15:54.420Z,100.00
2017-10-11T01:18:22.783Z,100.00
2017-10-11T01:20:51.175Z,100.00
2017-10-11T01:23:19.534Z,100.00
2017-10-11T01:25:47.923Z,100.00
2017-10-11T01:28:16.314Z,100.00
2017-10-11T01:30:44.682Z,100.00
2017-10-11T01:33:13.054Z,100.00
2017-10-11T01:35:41.406Z,100.00
2017-10-11T01:38:09.792Z,100.00
2017-10-11T01:40:38.139Z,100.00
2017-10-11T01:43:06.492Z,100.00
2017-10-11T01:45:34.842Z,100.00
2017-10-11T01:48:03.203Z,100.00
2017-10-11T01:50:31.584Z,100.00
2017-10-11T01:52:59.963Z,100.00
2017-10-11T01:55:28.350Z,100.00
2017-10-11T01:57:56.745Z,100.00
2017-10-11T02:00:25.090Z,100.00
2017-10-11T02:02:53.574Z,100.00
2017-10-11T02:05:21.926Z,100.00
2017-10-11T02:07:50.283Z,100.00
2017-10-11T02:10:18.650Z,100.00
2017-10-11T02:12:46.999Z,100.00
2017-10-11T02:15:15.382Z,100.00
2017-10-11T02:17:43.742Z,100.00
2017-10-11T02:20:12.127Z,100.00
2017-10-11T02:22:40.482Z,100.00
2017-10-11T02:25:08.854Z,100.00
2017-10-11T02:27:37.215Z,100.00
2017-10-11T02:30:05.575Z,100.00
2017-10-11T02:32:33.962Z,100.00
2017-10-11T02:35:02.326Z,100.00
2017-10-11T02:37:30.815Z,100.00
2017-10-11T02:39:59.178Z,100.00
2017-10-11T02:42:27.533Z,100.00
2017-10-11T02:44:55.889Z,100.00
2017-10-11T02:47:24.269Z,100.00
2017-10-11T02:49:52.635Z,100.00
2017-10-11T02:52:21.115Z,100.00
2017-10-11T02:54:49.471Z,100.00
2017-10-11T02:57:17.826Z,100.00
2017-10-11T02:59:46.204Z,100.00
2017-10-11T03:02:14.550Z,100.00
2017-10-11T03:04:42.951Z,100.00
2017-10-11T03:07:11.312Z,100.00
2017-10-11T03:09:39.666Z,100.00
2017-10-11T03:12:08.023Z,100.00
2017-10-11T03:14:36.405Z,100.00
2017-10-11T03:17:04.789Z,100.00
2017-10-11T03:19:33.143Z,100.00
2017-10-11T03:22:01.591Z,100.00
2017-10-11T03:24:29.940Z,100.00
2017-10-11T03:26:58.290Z,100.00
2017-10-11T03:29:26.681Z,100.00
2017-10-11T03:31:55.033Z,100.00
2017-10-11T03:34:23.391Z,100.00
2017-10-11T03:36:51.771Z,100.00
2017-10-11T03:39:20.151Z,100.00
2017-10-11T03:41:48.501Z,100.00
2017-10-11T03:44:16.863Z,100.00
2017-10-11T03:46:45.255Z,100.00
2017-10-11T03:49:13.606Z,100.00
2017-10-11T03:51:41.960Z,100.00
2017-10-11T03:54:10.313Z,100.00
2017-10-11T03:56:38.668Z,100.00
2017-10-11T03:59:07.052Z,100.00
2017-10-11T04:01:35.427Z,100.00
2017-10-11T04:04:03.779Z,100.00
2017-10-11T04:06:32.130Z,100.00
2017-10-11T04:09:00.486Z,100.00
2017-10-11T04:11:28.847Z,100.00
2017-10-11T04:13:57.326Z,100.00
2017-10-11T04:16:25.687Z,100.00
2017-10-11T04:18:54.047Z,100.00
2017-10-11T04:21:22.405Z,100.00
2017-10-11T04:23:50.756Z,100.00
2017-10-11T04:26:19.137Z,100.00
2017-10-11T04:28:47.518Z,100.00
2017-10-11T04:31:15.866Z,100.00
2017-10-11T04:33:44.351Z,100.00
2017-10-11T04:36:13.430Z,100.00
2017-10-11T04:38:41.786Z,100.00
2017-10-11T04:41:10.138Z,100.00
2017-10-11T04:43:38.524Z,100.00
2017-10-11T04:46:06.879Z,100.00
2017-10-11T04:48:35.239Z,100.00
2017-10-11T04:51:03.627Z,100.00
2017-10-11T04:53:32.007Z,100.00
2017-10-11T04:56:00.367Z,100.00
2017-10-11T04:58:28.749Z,100.00
2017-10-11T05:00:57.128Z,100.00
2017-10-11T05:03:25.486Z,100.00
2017-10-11T05:05:53.842Z,100.00
2017-10-11T05:08:22.195Z,100.00
2017-10-11T05:10:50.555Z,100.00
2017-10-11T05:13:18.912Z,100.00
2017-10-11T05:15:47.395Z,100.00
2017-10-11T05:18:15.757Z,100.00
2017-10-11T05:20:44.105Z,100.00
2017-10-11T05:23:12.459Z,100.00
2017-10-11T05:25:40.827Z,100.00
2017-10-11T05:28:09.196Z,100.00
2017-10-11T05:30:37.572Z,100.00
2017-10-11T05:33:05.922Z,100.00
2017-10-11T05:35:34.311Z,100.00
2017-10-11T05:38:02.735Z,100.00
2017-10-11T05:40:31.130Z,100.00
2017-10-11T05:42:59.485Z,100.00
2017-10-11T05:45:32.080Z,100.00
2017-10-11T05:48:00.426Z,100.00
2017-10-11T05:50:28.783Z,100.00
2017-10-11T05:52:57.275Z,100.00
2017-10-11T05:55:25.630Z,100.00
2017-10-11T05:57:53.987Z,100.00
2017-10-11T06:00:22.346Z,100.00
2017-10-11T06:02:50.705Z,100.00
2017-10-11T06:05:19.091Z,100.00
2017-10-11T06:07:47.443Z,100.00
2017-10-11T06:10:15.821Z,100.00
2017-10-11T06:12:44.178Z,100.00
2017-10-11T06:15:12.571Z,100.00
2017-10-11T06:17:40.931Z,100.00
2017-10-11T06:20:09.297Z,100.00
2017-10-11T06:22:37.647Z,100.00
2017-10-11T06:25:06.002Z,100.00
2017-10-11T06:27:34.357Z,100.00
2017-10-11T06:30:02.710Z,100.00
2017-10-11T06:32:31.091Z,100.00
2017-10-11T06:34:59.443Z,100.00
2017-10-11T06:37:27.799Z,100.00
2017-10-11T06:39:56.191Z,100.00
2017-10-11T06:42:24.555Z,100.00
2017-10-11T06:44:52.939Z,100.00
2017-10-11T06:47:21.291Z,100.00
2017-10-11T06:49:49.684Z,100.00
2017-10-11T06:52:18.044Z,100.00
2017-10-11T06:54:46.430Z,100.00
2017-10-11T06:57:14.782Z,100.00
2017-10-11T06:59:43.144Z,100.00
2017-10-11T07:02:11.494Z,100.00
2017-10-11T07:04:39.875Z,100.00
2017-10-11T07:07:08.222Z,100.00
2017-10-11T07:09:36.579Z,100.00
2017-10-11T07:12:04.931Z,100.00
2017-10-11T07:14:33.282Z,100.00
2017-10-11T07:17:01.706Z,100.00
2017-10-11T07:19:30.082Z,100.00
2017-10-11T07:21:58.444Z,100.00
2017-10-11T07:24:26.803Z,100.00
2017-10-11T07:26:55.155Z,100.00
2017-10-11T07:29:23.535Z,100.00
2017-10-11T07:31:51.891Z,100.00
2017-10-11T07:34:20.371Z,100.00
2017-10-11T07:36:48.721Z,100.00
2017-10-11T07:39:17.088Z,100.00
2017-10-11T07:41:45.470Z,100.00
2017-10-11T07:44:13.826Z,100.00
2017-10-11T07:46:42.186Z,100.00
2017-10-11T07:49:10.546Z,100.00
2017-10-11T07:51:38.904Z,100.00
2017-10-11T07:54:07.264Z,100.00
2017-10-11T07:56:35.650Z,100.00
2017-10-11T07:59:04.031Z,100.00
2017-10-11T08:01:32.415Z,100.00
2017-10-11T08:04:00.776Z,100.00
2017-10-11T08:06:29.138Z,100.00
2017-10-11T08:08:57.483Z,100.00
2017-10-11T08:11:25.862Z,100.00
2017-10-11T08:13:54.222Z,100.00
2017-10-11T08:16:22.606Z,100.00
2017-10-11T08:18:50.961Z,100.00
2017-10-11T08:21:19.350Z,100.00
2017-10-11T08:23:47.730Z,100.00
2017-10-11T08:26:16.119Z,100.00
2017-10-11T08:28:44.502Z,100.00
2017-10-11T08:31:12.858Z,100.00
2017-10-11T08:33:41.214Z,100.00
2017-10-11T08:36:09.706Z,100.00
2017-10-11T08:38:38.064Z,100.00
2017-10-11T08:41:06.423Z,100.00
2017-10-11T08:43:34.770Z,100.00
2017-10-11T08:46:03.127Z,100.00
2017-10-11T08:48:31.814Z,100.00
2017-10-11T08:51:00.159Z,100.00
2017-10-11T08:53:28.551Z,100.00
2017-10-11T08:55:56.898Z,100.00
2017-10-11T08:58:25.379Z,100.00
2017-10-11T09:00:53.739Z,100.00
2017-10-11T09:03:22.629Z,100.00
2017-10-11T09:05:50.981Z,100.00
2017-10-11T09:08:19.334Z,100.00
2017-10-11T09:10:47.702Z,100.00
2017-10-11T09:13:16.054Z,100.00
2017-10-11T09:15:44.430Z,100.00
2017-10-11T09:18:13.171Z,100.00
2017-10-11T09:20:41.517Z,100.00
2017-10-11T09:23:09.890Z,100.00
2017-10-11T09:25:38.234Z,100.00
2017-10-11T09:28:06.711Z,100.00
2017-10-11T09:30:35.226Z,100.00
2017-10-11T09:33:03.580Z,100.00
2017-10-11T09:35:32.618Z,100.00
2017-10-11T09:38:00.975Z,100.00
2017-10-11T09:40:29.353Z,100.00
2017-10-11T09:42:57.703Z,100.00
2017-10-11T09:45:26.054Z,100.00
2017-10-11T09:47:54.402Z,100.00
2017-10-11T09:50:22.750Z,100.00
2017-10-11T09:52:51.124Z,100.00
2017-10-11T09:55:19.475Z,100.00
2017-10-11T09:57:47.851Z,100.00
2017-10-11T10:00:16.322Z,100.00
2017-10-11T10:02:44.667Z,100.00
2017-10-11T10:05:13.020Z,100.00
2017-10-11T10:07:41.366Z,100.00
2017-10-11T10:10:09.769Z,100.00
2017-10-11T10:12:38.111Z,100.00
2017-10-11T10:15:06.586Z,100.00
2017-10-11T10:17:34.931Z,100.00
2017-10-11T10:20:03.286Z,100.00
2017-10-11T10:22:31.635Z,100.00
2017-10-11T10:24:59.989Z,100.00
2017-10-11T10:27:28.368Z,100.00
2017-10-11T10:29:56.736Z,100.00
2017-10-11T10:32:25.109Z,100.00
2017-10-11T10:34:53.495Z,100.00
2017-10-11T10:37:21.859Z,100.00
2017-10-11T10:39:50.234Z,100.00
2017-10-11T10:42:18.603Z,100.00
2017-10-11T10:44:46.988Z,100.00
2017-10-11T10:47:15.347Z,100.00
2017-10-11T10:49:43.731Z,100.00
2017-10-11T10:52:12.087Z,100.00
2017-10-11T10:54:40.475Z,100.00
2017-10-11T10:57:08.830Z,100.00
2017-10-11T10:59:37.216Z,100.00
2017-10-11T11:02:05.570Z,100.00
2017-10-11T11:04:34.228Z,100.00
2017-10-11T11:07:03.543Z,100.00
2017-10-11T11:09:31.918Z,100.00
2017-10-11T11:12:00.275Z,100.00
2017-10-11T11:14:28.654Z,100.00
2017-10-11T11:16:57.011Z,100.00
2017-10-11T11:19:25.364Z,100.00
2017-10-11T11:21:53.718Z,100.00
2017-10-11T11:24:22.194Z,100.00
2017-10-11T11:26:50.547Z,100.00
2017-10-11T11:29:18.903Z,100.00
2017-10-11T11:31:47.263Z,100.00
2017-10-11T11:34:15.635Z,100.00
2017-10-11T11:36:44.002Z,100.00
2017-10-11T11:39:12.362Z,100.00
2017-10-11T11:41:40.739Z,100.00
2017-10-11T11:44:09.087Z,100.00
2017-10-11T11:46:37.478Z,100.00
2017-10-11T11:49:05.835Z,100.00
2017-10-11T11:51:34.214Z,100.00
2017-10-11T11:54:02.592Z,100.00
2017-10-11T11:56:31.084Z,100.00
2017-10-11T11:58:59.431Z,100.00
2017-10-11T12:01:27.787Z,100.00
2017-10-11T12:03:56.162Z,100.00
2017-10-11T12:06:24.523Z,100.00
2017-10-11T12:08:54.346Z,100.00
2017-10-11T12:11:22.699Z,100.00
2017-10-11T12:13:51.054Z,100.00
2017-10-11T12:16:19.402Z,100.00
2017-10-11T12:18:47.756Z,100.00
2017-10-11T12:21:16.245Z,100.00
2017-10-11T12:23:44.598Z,100.00
2017-10-11T12:26:12.959Z,100.00
2017-10-11T12:28:41.323Z,100.00
2017-10-11T12:31:09.675Z,100.00
2017-10-11T12:33:38.148Z,100.00
2017-10-11T12:36:06.499Z,100.00
2017-10-11T12:38:34.861Z,100.00
2017-10-11T12:41:03.329Z,100.00
2017-10-11T12:43:31.810Z,100.00
2017-10-11T12:46:00.165Z,100.00
2017-10-11T12:48:28.510Z,100.00
2017-10-11T12:50:56.878Z,100.00
2017-10-11T12:53:25.231Z,100.00
2017-10-11T12:55:53.583Z,100.00
2017-10-11T12:58:21.922Z,100.00
2017-10-11T13:00:50.274Z,100.00
2017-10-11T13:03:18.655Z,100.00
2017-10-11T13:05:47.920Z,100.00
2017-10-11T13:08:16.272Z,100.00
2017-10-11T13:10:44.623Z,100.00
2017-10-11T13:13:13.008Z,100.00
2017-10-11T13:15:41.346Z,100.00
2017-10-11T13:18:09.699Z,100.00
2017-10-11T13:20:38.078Z,100.00
2017-10-11T13:23:06.427Z,100.00
2017-10-11T13:25:35.006Z,100.00
2017-10-11T13:28:03.343Z,100.00
2017-10-11T13:30:31.690Z,100.00
2017-10-11T13:33:00.071Z,100.00
2017-10-11T13:35:28.415Z,100.00
2017-10-11T13:37:56.754Z,99.53
2017-10-11T13:40:25.114Z,98.51
2017-10-11T13:42:53.455Z,98.27
2017-10-11T13:45:21.794Z,98.43
2017-10-11T13:47:50.126Z,98.37
2017-10-11T13:50:18.471Z,98.06
2017-10-11T13:52:46.817Z,98.49
2017-10-11T13:55:15.507Z,98.12
2017-10-11T13:57:43.886Z,98.59
2017-10-11T14:00:12.347Z,99.51
2017-10-11T14:02:40.699Z,98.29
2017-10-11T14:07:43.654Z,97.07
2017-10-11T14:10:12.022Z,96.38
2017-10-11T14:12:40.376Z,95.52
2017-10-11T14:15:08.710Z,95.58
2017-10-11T14:17:37.178Z,95.90
2017-10-11T14:20:05.533Z,96.59
2017-10-11T14:22:33.875Z,96.16
2017-10-11T14:25:02.228Z,95.60
2017-10-11T14:27:30.590Z,95.55
2017-10-11T14:29:58.926Z,95.92
2017-10-11T14:32:27.265Z,96.58
2017-10-11T14:34:55.621Z,96.55
2017-10-11T14:37:24.062Z,95.86
2017-10-11T14:39:52.398Z,96.55
2017-10-11T14:42:20.734Z,96.98
2017-10-11T14:44:49.078Z,97.12
2017-10-11T14:47:17.438Z,97.20
2017-10-11T14:49:45.781Z,97.61
2017-10-11T14:52:14.116Z,97.42
2017-10-11T14:54:42.451Z,97.60
2017-10-11T14:57:10.803Z,97.44
2017-10-11T14:59:39.274Z,97.46
2017-10-11T15:02:07.619Z,98.37
2017-10-11T15:04:35.957Z,98.50
2017-10-11T15:07:04.290Z,98.96
2017-10-11T15:09:32.625Z,99.89
2017-10-11T15:12:00.991Z,100.00
2017-10-11T15:14:29.335Z,99.88
2017-10-11T15:16:57.695Z,99.79
2017-10-11T15:19:26.096Z,100.00
2017-10-11T15:21:54.442Z,99.07
2017-10-11T15:24:22.775Z,98.97
2017-10-11T15:26:51.112Z,98.42
2017-10-11T15:29:19.450Z,99.47
2017-10-11T15:31:47.797Z,99.97
2017-10-11T15:34:16.133Z,99.76
2017-10-11T15:36:44.463Z,99.56
2017-10-11T15:39:12.800Z,99.28
2017-10-11T15:41:41.171Z,98.96
2017-10-11T15:44:09.506Z,99.05
2017-10-11T15:46:37.856Z,99.14
2017-10-11T15:49:06.195Z,98.61
2017-10-11T15:51:34.552Z,98.58
2017-10-11T15:54:02.902Z,98.53
2017-10-11T15:56:31.239Z,99.22
2017-10-11T15:58:59.581Z,99.23
2017-10-11T16:01:27.910Z,99.35
2017-10-11T16:03:56.510Z,99.43
2017-10-11T16:06:24.847Z,99.65
2017-10-11T16:08:53.239Z,100.00
2017-10-11T16:11:21.593Z,100.00
2017-10-11T16:13:49.936Z,100.00
2017-10-11T16:16:18.278Z,99.98
2017-10-11T16:18:46.654Z,100.00
2017-10-11T16:21:14.995Z,99.91
2017-10-11T16:23:44.588Z,100.00
2017-10-11T16:26:13.040Z,100.00
2017-10-11T16:28:41.410Z,100.00
2017-10-11T16:31:09.750Z,100.00
2017-10-11T16:33:38.119Z,100.00
2017-10-11T16:36:06.487Z,100.00
2017-10-11T16:38:34.829Z,100.00
2017-10-11T16:41:03.168Z,100.00
2017-10-11T16:43:31.539Z,100.00
2017-10-11T16:45:59.876Z,100.00
2017-10-11T16:48:28.228Z,100.00
2017-10-11T16:50:56.746Z,100.00
2017-10-11T16:53:25.090Z,100.00
2017-10-11T16:55:53.462Z,100.00
2017-10-11T16:58:22.187Z,100.00
2017-10-11T17:00:50.544Z,100.00
2017-10-11T17:03:18.896Z,100.00
2017-10-11T17:05:47.232Z,100.00
2017-10-11T17:08:15.579Z,100.00
2017-10-11T17:10:43.918Z,100.00
2017-10-11T17:13:12.290Z,100.00
2017-10-11T17:15:40.654Z,100.00
2017-10-11T17:18:09.002Z,100.00
2017-10-11T17:20:37.339Z,100.00
2017-10-11T17:23:05.687Z,100.00
2017-10-11T17:25:34.220Z,100.00
2017-10-11T17:28:02.566Z,100.00
2017-10-11T17:30:30.960Z,100.00
2017-10-11T17:32:59.303Z,100.00
2017-10-11T17:35:27.650Z,100.00
2017-10-11T17:37:55.988Z,100.00
2017-10-11T17:40:24.386Z,100.00
2017-10-11T17:42:52.759Z,100.00
2017-10-11T17:45:21.127Z,100.00
2017-10-11T17:47:49.470Z,100.00
2017-10-11T17:50:17.823Z,100.00
2017-10-11T17:52:46.196Z,100.00
2017-10-11T17:55:14.570Z,100.00
2017-10-11T17:57:42.917Z,100.00
2017-10-11T18:02:45.762Z,100.00
2017-10-11T18:05:15.015Z,100.00
2017-10-11T18:07:43.361Z,100.00
2017-10-11T18:10:11.730Z,100.00
2017-10-11T18:12:40.184Z,100.00
2017-10-11T18:15:08.518Z,100.00
2017-10-11T18:17:36.862Z,100.00
2017-10-11T18:20:05.207Z,100.00
2017-10-11T18:22:33.581Z,100.00
2017-10-11T18:25:02.138Z,100.00
2017-10-11T18:27:30.502Z,100.00
2017-10-11T18:29:58.870Z,100.00
2017-10-11T18:32:27.219Z,100.00
2017-10-11T18:34:56.482Z,100.00
2017-10-11T18:37:24.863Z,100.00
2017-10-11T18:39:53.203Z,100.00
2017-10-11T18:42:21.574Z,100.00
2017-10-11T18:44:49.944Z,100.00
2017-10-11T18:47:18.286Z,100.00
2017-10-11T18:49:46.667Z,100.00
2017-10-11T18:52:15.054Z,100.00
2017-10-11T18:54:43.417Z,100.00
2017-10-11T18:57:11.763Z,100.00
2017-10-11T18:59:40.146Z,100.00
2017-10-11T19:02:08.482Z,100.00
2017-10-11T19:04:37.722Z,100.00
2017-10-11T19:07:06.195Z,100.00
2017-10-11T19:09:34.551Z,100.00
2017-10-11T19:12:02.902Z,100.00
2017-10-11T19:14:31.243Z,100.00
2017-10-11T19:16:59.590Z,100.00
2017-10-11T19:19:27.962Z,100.00
2017-10-11T19:21:56.306Z,100.00
2017-10-11T19:24:24.683Z,100.00
2017-10-11T19:26:53.027Z,100.00
2017-10-11T19:29:21.390Z,100.00
2017-10-11T19:31:49.738Z,100.00
2017-10-11T19:34:18.079Z,100.00
2017-10-11T19:36:46.438Z,100.00
2017-10-11T19:39:14.794Z,100.00
2017-10-11T19:41:43.482Z,100.00
2017-10-11T19:44:11.823Z,100.00
2017-10-11T19:46:40.194Z,100.00
2017-10-11T19:49:08.542Z,100.00
2017-10-11T19:51:36.911Z,100.00
2017-10-11T19:54:05.278Z,100.00
2017-10-11T19:56:33.627Z,100.00
2017-10-11T19:59:01.975Z,100.00
2017-10-11T20:01:30.320Z,100.00
2017-10-11T20:03:58.671Z,100.00
2017-10-11T20:06:27.050Z,100.00
2017-10-11T20:08:55.398Z,100.00
2017-10-11T20:11:23.781Z,100.00
2017-10-11T20:13:52.119Z,100.00
2017-10-11T20:16:20.587Z,100.00
2017-10-11T20:18:48.930Z,100.00
2017-10-11T20:21:17.268Z,100.00
2017-10-11T20:23:48.110Z,100.00
2017-10-11T20:26:16.498Z,100.00
2017-10-11T20:28:44.855Z,100.00
2017-10-11T20:31:13.306Z,100.00
2017-10-11T20:33:41.806Z,100.00
2017-10-11T20:36:10.190Z,100.00
2017-10-11T20:38:38.534Z,100.00
2017-10-11T20:41:06.879Z,100.00
2017-10-11T20:43:35.226Z,100.00
2017-10-11T20:46:03.573Z,100.00
2017-10-11T20:48:31.913Z,100.00
2017-10-11T20:51:00.296Z,100.00
2017-10-11T20:53:28.639Z,100.00
2017-10-11T20:55:56.977Z,100.00
2017-10-11T20:58:25.401Z,100.00
2017-10-11T21:00:53.739Z,100.00
2017-10-11T21:03:22.310Z,100.00
2017-10-11T21:05:50.646Z,100.00
2017-10-11T21:08:18.989Z,100.00
2017-10-11T21:10:47.355Z,100.00
2017-10-11T21:13:15.701Z,100.00
2017-10-11T21:15:44.092Z,100.00
2017-10-11T21:18:12.438Z,100.00
2017-10-11T21:20:40.829Z,100.00
2017-10-11T21:23:09.159Z,100.00
2017-10-11T21:25:37.503Z,100.00
2017-10-11T21:28:05.840Z,100.00
2017-10-11T21:30:34.220Z,100.00
2017-10-11T21:33:02.565Z,99.94
2017-10-11T21:35:30.901Z,99.51
2017-10-11T21:37:59.240Z,99.86
2017-10-11T21:40:27.707Z,99.86
2017-10-11T21:42:56.054Z,100.00
2017-10-11T21:45:24.406Z,100.00
2017-10-11T21:47:52.743Z,100.00
2017-10-11T21:50:21.081Z,99.73
2017-10-11T21:52:49.446Z,99.12
2017-10-11T21:55:17.779Z,98.61
2017-10-11T21:57:46.245Z,98.35
2017-10-11T22:00:14.582Z,97.55
2017-10-11T22:02:42.931Z,97.21
2017-10-11T22:05:11.258Z,96.44
2017-10-11T22:07:39.622Z,97.07
2017-10-11T22:10:07.985Z,96.83
2017-10-11T22:12:36.326Z,96.44
2017-10-11T22:15:04.686Z,97.20
2017-10-11T22:17:33.043Z,97.48
2017-10-11T22:20:01.692Z,97.59
2017-10-11T22:22:30.022Z,97.77
2017-10-11T22:24:58.362Z,97.66
2017-10-11T22:27:26.705Z,98.02
2017-10-11T22:29:55.043Z,98.44
2017-10-11T22:32:23.383Z,98.90
2017-10-11T22:34:51.728Z,99.11
2017-10-11T22:37:20.062Z,99.02
2017-10-11T22:39:49.968Z,98.89
2017-10-11T22:42:18.330Z,99.11
2017-10-11T22:44:46.666Z,99.02
2017-10-11T22:47:15.007Z,98.63
2017-10-11T22:49:43.355Z,98.76
2017-10-11T22:52:11.686Z,98.82
2017-10-11T22:54:40.046Z,98.76
2017-10-11T22:57:08.391Z,98.50
2017-10-11T22:59:36.726Z,98.25
2017-10-11T23:02:05.058Z,98.41
2017-10-11T23:04:33.426Z,98.77
2017-10-11T23:07:01.782Z,98.44
2017-10-11T23:09:30.123Z,97.93
2017-10-11T23:11:59.322Z,98.25
2017-10-11T23:14:27.663Z,98.93
2017-10-11T23:16:56.051Z,98.85
2017-10-11T23:19:24.411Z,99.36
2017-10-11T23:21:52.750Z,100.00
2017-10-11T23:24:21.086Z,99.72
2017-10-11T23:26:49.449Z,99.34
2017-10-11T23:29:17.779Z,99.39
2017-10-11T23:31:46.150Z,99.87
2017-10-11T23:34:14.482Z,99.99
2017-10-11T23:36:42.859Z,100.00
2017-10-11T23:39:11.198Z,100.00
2017-10-11T23:41:39.546Z,100.00
2017-10-11T23:44:07.916Z,100.00
2017-10-11T23:46:36.258Z,99.74
2017-10-11T23:49:04.590Z,99.80
2017-10-11T23:51:33.062Z,100.00
2017-10-11T23:54:01.408Z,100.00
2017-10-11T23:56:29.752Z,100.00
2017-10-11T23:58:58.104Z,100.00
